Time;durP1;ratioP1;P1;durP2;ratioP2;P2;SDS_P1;SDS_P2;PMS_P1;PMS_P2;Temp;Humidity;BMP_temperature;BMP_pressure;BME280_temperature;BME280_humidity;BME280_pressure;Samples;Min_cycle;Max_cycle;Signal;HPM_P1;HPM_P2
2022/09/15 00:01:11;;;;;;;2.40;1.45;;;;;;;;;;7387983;19;19999;-74
2022/09/15 00:03:37;;;;;;;2.60;1.55;;;;;;;;;;7385347;19;20461;-74
2022/09/15 00:06:03;;;;;;;2.03;1.55;;;;;;;;;;7388827;19;20003;-74
2022/09/15 00:08:29;;;;;;;2.67;1.70;;;;;;;;;;7388866;19;19999;-75
2022/09/15 00:11:04;;;;;;;3.13;1.58;;;;;;;;;;7389294;19;20003;-76
2022/09/15 00:13:30;;;;;;;3.50;1.73;;;;;;;;;;7387029;19;19995;-76
2022/09/15 00:15:55;;;;;;;2.85;1.55;;;;;;;;;;7388193;19;20348;-76
2022/09/15 00:18:20;;;;;;;3.85;1.80;;;;;;;;;;7388360;19;20068;-76
2022/09/15 00:20:46;;;;;;;2.15;1.42;;;;;;;;;;7386850;19;20075;-75
2022/09/15 00:23:13;;;;;;;3.10;1.58;;;;;;;;;;7387155;19;20003;-75
2022/09/15 00:25:47;;;;;;;2.38;1.30;;;;;;;;;;7387968;19;20058;-75
2022/09/15 00:28:15;;;;;;;2.92;1.80;;;;;;;;;;7387838;19;20016;-75
2022/09/15 00:30:47;;;;;;;2.05;1.50;;;;;;;;;;7387561;19;20006;-75
2022/09/15 00:33:14;;;;;;;2.30;1.63;;;;;;;;;;7386238;19;20358;-76
2022/09/15 00:35:40;;;;;;;5.38;1.58;;;;;;;;;;7386903;19;19994;-75
2022/09/15 00:38:07;;;;;;;1.88;1.27;;;;;;;;;;7385797;19;20461;-75
2022/09/15 00:40:41;;;;;;;1.77;1.50;;;;;;;;;;7385718;19;19998;-76
2022/09/15 00:43:09;;;;;;;2.70;1.55;;;;;;;;;;7385948;19;20779;-76
2022/09/15 00:45:35;;;;;;;1.58;1.17;;;;;;;;;;7385047;19;20003;-74
2022/09/15 00:48:01;;;;;;;1.55;1.45;;;;;;;;;;7386745;19;20005;-75
2022/09/15 00:50:26;;;;;;;4.72;1.88;;;;;;;;;;7384319;19;20003;-76
2022/09/15 00:52:57;;;;;;;3.42;1.67;;;;;;;;;;7387681;19;20002;-74
2022/09/15 00:55:28;;;;;;;3.55;1.80;;;;;;;;;;7387037;19;19998;-74
2022/09/15 00:58:05;;;;;;;3.47;1.70;;;;;;;;;;7386500;19;19994;-76
2022/09/15 01:00:31;;;;;;;1.80;1.40;;;;;;;;;;7386751;19;20006;-76
2022/09/15 01:02:57;;;;;;;2.03;1.48;;;;;;;;;;7384855;19;19998;-75
2022/09/15 01:05:35;;;;;;;2.13;1.67;;;;;;;;;;7386267;19;20006;-75
2022/09/15 01:08:05;;;;;;;2.85;1.70;;;;;;;;;;7392319;19;20002;-75
2022/09/15 01:10:34;;;;;;;2.35;1.63;;;;;;;;;;7394095;19;20011;-75
2022/09/15 01:13:03;;;;;;;3.90;1.52;;;;;;;;;;7392235;19;20097;-74
2022/09/15 01:15:41;;;;;;;2.13;1.60;;;;;;;;;;7391574;19;20367;-75
2022/09/15 01:18:37;;;;;;;1.77;1.40;;;;;;;;;;7392119;19;19998;-75
2022/09/15 01:21:32;;;;;;;2.72;1.33;;;;;;;;;;7392915;19;19994;-74
2022/09/15 01:24:28;;;;;;;4.40;1.80;;;;;;;;;;7390236;19;20062;-76
2022/09/15 01:27:07;;;;;;;5.03;1.80;;;;;;;;;;7393230;19;20480;-75
2022/09/15 01:29:44;;;;;;;1.83;1.50;;;;;;;;;;7391560;19;19999;-76
2022/09/15 01:33:03;;;;;;;2.45;1.60;;;;;;;;;;7390609;19;20464;-75
2022/09/15 01:35:48;;;;;;;3.53;1.42;;;;;;;;;;7390695;19;19994;-76
2022/09/15 01:38:51;;;;;;;3.53;1.50;;;;;;;;;;7393202;19;19949;-75
2022/09/15 01:41:24;;;;;;;2.45;1.65;;;;;;;;;;7393354;19;20009;-76
2022/09/15 01:44:11;;;;;;;1.85;1.65;;;;;;;;;;7392003;19;20026;-76
2022/09/15 01:46:39;;;;;;;4.15;1.60;;;;;;;;;;7393773;19;20464;-76
2022/09/15 01:49:08;;;;;;;3.03;1.63;;;;;;;;;;7393576;19;20456;-76
2022/09/15 01:51:35;;;;;;;2.72;1.52;;;;;;;;;;7393024;19;20034;-76
2022/09/15 01:54:03;;;;;;;2.17;1.75;;;;;;;;;;7391316;19;20518;-76
2022/09/15 01:56:36;;;;;;;2.47;1.70;;;;;;;;;;7392486;19;20070;-76
2022/09/15 01:59:01;;;;;;;2.35;1.73;;;;;;;;;;7393362;19;20020;-76
2022/09/15 02:01:39;;;;;;;1.85;1.30;;;;;;;;;;7392764;19;19999;-76
2022/09/15 02:04:17;;;;;;;2.63;1.50;;;;;;;;;;7390833;19;20003;-77
2022/09/15 02:07:05;;;;;;;1.92;1.33;;;;;;;;;;7392585;19;19999;-77
2022/09/15 02:09:42;;;;;;;2.90;1.45;;;;;;;;;;7414278;19;19994;-77
2022/09/15 02:12:20;;;;;;;4.45;1.85;;;;;;;;;;7419257;19;20019;-78
2022/09/15 02:14:54;;;;;;;3.00;1.60;;;;;;;;;;7413570;19;20500;-76
2022/09/15 02:17:21;;;;;;;1.42;1.25;;;;;;;;;;7390249;19;19995;-76
2022/09/15 02:19:51;;;;;;;3.47;1.25;;;;;;;;;;7392225;19;20002;-76
2022/09/15 02:22:29;;;;;;;5.37;1.90;;;;;;;;;;7391467;19;20074;-76
2022/09/15 02:25:09;;;;;;;2.13;1.40;;;;;;;;;;7390819;19;20006;-75
2022/09/15 02:27:43;;;;;;;1.55;1.40;;;;;;;;;;7391944;19;20003;-76
2022/09/15 02:30:11;;;;;;;2.25;1.48;;;;;;;;;;7391981;19;20525;-78
2022/09/15 02:32:42;;;;;;;2.35;1.48;;;;;;;;;;7390626;19;20030;-78
2022/09/15 02:35:09;;;;;;;2.00;1.50;;;;;;;;;;7391344;19;20496;-77
2022/09/15 02:37:36;;;;;;;1.52;1.30;;;;;;;;;;7389399;19;20005;-77
2022/09/15 02:40:03;;;;;;;1.70;1.15;;;;;;;;;;7389403;19;20006;-75
2022/09/15 02:42:31;;;;;;;0.98;0.98;;;;;;;;;;7389480;19;20039;-77
2022/09/15 02:44:58;;;;;;;1.35;1.05;;;;;;;;;;7390473;19;19999;-76
2022/09/15 02:47:24;;;;;;;2.13;1.15;;;;;;;;;;7390203;19;20054;-76
2022/09/15 02:49:50;;;;;;;1.50;1.05;;;;;;;;;;7390111;19;20474;-77
2022/09/15 02:52:15;;;;;;;1.30;1.20;;;;;;;;;;7387754;19;19994;-77
2022/09/15 02:54:41;;;;;;;1.75;1.10;;;;;;;;;;7391040;19;20002;-77
2022/09/15 02:57:06;;;;;;;2.70;1.17;;;;;;;;;;7389627;19;20015;-76
2022/09/15 03:00:12;;;;;;;1.02;1.02;;;;;;;;;;7391043;19;19999;-76
2022/09/15 03:02:19;;;;;;;1.75;0.90;;;;;;;;;;7389779;19;20337;-76
2022/09/15 03:04:46;;;;;;;1.52;1.10;;;;;;;;;;7388723;19;20407;-77
2022/09/15 03:07:11;;;;;;;0.63;0.57;;;;;;;;;;7389899;19;19998;-76
2022/09/15 03:09:36;;;;;;;0.60;0.60;;;;;;;;;;7389661;19;20010;-76
2022/09/15 03:12:02;;;;;;;0.73;0.73;;;;;;;;;;7389302;19;20005;-76
2022/09/15 03:14:28;;;;;;;0.65;0.65;;;;;;;;;;7387909;19;20005;-76
2022/09/15 03:16:53;;;;;;;0.70;0.70;;;;;;;;;;7388481;19;20022;-74
2022/09/15 03:19:19;;;;;;;0.98;0.85;;;;;;;;;;7389516;19;19999;-77
2022/09/15 03:21:44;;;;;;;1.60;1.23;;;;;;;;;;7388736;19;20066;-76
2022/09/15 03:24:09;;;;;;;1.80;1.40;;;;;;;;;;7387710;19;20005;-76
2022/09/15 03:26:35;;;;;;;1.70;1.15;;;;;;;;;;7387243;19;20476;-75
2022/09/15 03:29:00;;;;;;;2.42;1.70;;;;;;;;;;7386297;19;20006;-76
2022/09/15 03:31:25;;;;;;;3.38;1.83;;;;;;;;;;7386862;19;20565;-75
2022/09/15 03:33:53;;;;;;;1.58;1.45;;;;;;;;;;7388992;19;19995;-76
2022/09/15 03:36:19;;;;;;;4.38;2.38;;;;;;;;;;7386588;19;20090;-75
2022/09/15 03:38:44;;;;;;;3.97;2.15;;;;;;;;;;7388843;19;19998;-76
2022/09/15 03:41:10;;;;;;;4.28;2.20;;;;;;;;;;7386713;19;20092;-77
2022/09/15 03:43:37;;;;;;;5.82;2.75;;;;;;;;;;7386712;19;20006;-76
2022/09/15 03:46:04;;;;;;;6.93;3.38;;;;;;;;;;7388555;19;19998;-76
2022/09/15 03:48:31;;;;;;;6.25;3.63;;;;;;;;;;7388155;19;20002;-76
2022/09/15 03:50:56;;;;;;;5.82;3.72;;;;;;;;;;7384343;19;20487;-74
2022/09/15 03:53:22;;;;;;;9.40;3.95;;;;;;;;;;7386428;19;20050;-75
2022/09/15 03:55:48;;;;;;;7.45;4.25;;;;;;;;;;7385652;19;20002;-74
2022/09/15 03:58:15;;;;;;;8.63;4.97;;;;;;;;;;7385971;19;20473;-75
2022/09/15 04:00:41;;;;;;;11.73;4.88;;;;;;;;;;7386573;19;19999;-74
2022/09/15 04:03:07;;;;;;;9.13;4.35;;;;;;;;;;7386066;19;19999;-74
2022/09/15 04:05:33;;;;;;;9.45;5.00;;;;;;;;;;7386390;19;19998;-75
2022/09/15 04:07:59;;;;;;;7.03;3.80;;;;;;;;;;7388765;19;19995;-75
2022/09/15 04:10:24;;;;;;;8.75;5.32;;;;;;;;;;7386664;19;20008;-75
2022/09/15 04:12:51;;;;;;;10.63;4.80;;;;;;;;;;7387674;19;20002;-75
2022/09/15 04:15:17;;;;;;;10.02;5.40;;;;;;;;;;7387795;19;19999;-75
2022/09/15 04:17:43;;;;;;;10.40;5.75;;;;;;;;;;7384040;19;19999;-75
2022/09/15 04:20:08;;;;;;;8.27;4.95;;;;;;;;;;7386443;19;20015;-75
2022/09/15 04:22:34;;;;;;;9.52;5.60;;;;;;;;;;7387516;19;19998;-74
2022/09/15 04:24:59;;;;;;;9.60;5.00;;;;;;;;;;7387655;19;19994;-75
2022/09/15 04:27:24;;;;;;;12.57;6.20;;;;;;;;;;7387392;19;19994;-74
2022/09/15 04:29:51;;;;;;;11.88;5.72;;;;;;;;;;7388721;19;19991;-73
2022/09/15 04:32:17;;;;;;;13.68;6.38;;;;;;;;;;7388652;19;20005;-75
2022/09/15 04:34:42;;;;;;;12.02;6.18;;;;;;;;;;7389213;19;19998;-75
2022/09/15 04:37:08;;;;;;;14.75;7.82;;;;;;;;;;7390106;19;20082;-74
2022/09/15 04:39:33;;;;;;;16.35;7.05;;;;;;;;;;7390240;19;20012;-74
2022/09/15 04:41:59;;;;;;;14.88;6.50;;;;;;;;;;7390966;19;20023;-75
2022/09/15 04:44:24;;;;;;;15.25;6.70;;;;;;;;;;7394503;19;20072;-75
2022/09/15 04:46:50;;;;;;;11.73;5.82;;;;;;;;;;7394418;19;20024;-75
2022/09/15 04:49:15;;;;;;;8.45;4.70;;;;;;;;;;7393606;19;19995;-74
2022/09/15 04:51:40;;;;;;;14.95;6.10;;;;;;;;;;7393359;19;20436;-74
2022/09/15 04:54:06;;;;;;;12.05;4.75;;;;;;;;;;7396182;19;20002;-73
2022/09/15 04:56:32;;;;;;;12.13;5.75;;;;;;;;;;7390584;19;20423;-74
2022/09/15 04:58:59;;;;;;;11.63;6.20;;;;;;;;;;7395701;19;19998;-76
2022/09/15 05:01:33;;;;;;;9.63;5.05;;;;;;;;;;7390544;19;20002;-75
2022/09/15 05:04:02;;;;;;;16.17;5.93;;;;;;;;;;7393087;19;19994;-75
2022/09/15 05:06:31;;;;;;;11.07;6.07;;;;;;;;;;7397132;19;20040;-74
2022/09/15 05:08:57;;;;;;;10.05;5.00;;;;;;;;;;7396926;19;20011;-75
2022/09/15 05:11:24;;;;;;;9.68;4.40;;;;;;;;;;7392873;19;20036;-74
2022/09/15 05:13:50;;;;;;;8.10;4.50;;;;;;;;;;7391982;19;20006;-75
2022/09/15 05:16:20;;;;;;;8.05;3.85;;;;;;;;;;7392671;19;20037;-74
2022/09/15 05:18:47;;;;;;;12.63;4.88;;;;;;;;;;7392987;19;19998;-73
2022/09/15 05:21:16;;;;;;;11.65;5.45;;;;;;;;;;7393295;19;20005;-75
2022/09/15 05:23:41;;;;;;;7.65;3.92;;;;;;;;;;7392920;19;20003;-74
2022/09/15 05:26:11;;;;;;;8.43;4.32;;;;;;;;;;7395071;19;20008;-73
2022/09/15 05:28:37;;;;;;;7.70;4.07;;;;;;;;;;7390505;19;19999;-73
2022/09/15 05:31:21;;;;;;;6.93;3.55;;;;;;;;;;7392080;19;20020;-74
2022/09/15 05:33:48;;;;;;;6.68;3.47;;;;;;;;;;7396382;19;20001;-73
2022/09/15 05:36:16;;;;;;;5.57;3.28;;;;;;;;;;7391417;19;19998;-74
2022/09/15 05:38:42;;;;;;;6.28;3.60;;;;;;;;;;7392698;19;20015;-73
2022/09/15 05:41:11;;;;;;;7.47;3.97;;;;;;;;;;7395168;19;19997;-72
2022/09/15 05:43:38;;;;;;;6.30;3.78;;;;;;;;;;7395851;19;20012;-73
2022/09/15 05:46:04;;;;;;;7.88;4.18;;;;;;;;;;7393910;19;19995;-70
2022/09/15 05:48:30;;;;;;;7.13;3.67;;;;;;;;;;7392082;19;20054;-71
2022/09/15 05:50:56;;;;;;;6.20;3.20;;;;;;;;;;7390518;19;20007;-72
2022/09/15 05:53:22;;;;;;;7.22;3.88;;;;;;;;;;7389497;19;20388;-72
2022/09/15 05:55:52;;;;;;;6.47;3.05;;;;;;;;;;7387991;19;20002;-72
2022/09/15 05:58:18;;;;;;;6.50;3.30;;;;;;;;;;7391333;19;20003;-72
2022/09/15 06:00:43;;;;;;;8.82;3.63;;;;;;;;;;7388165;19;20678;-73
2022/09/15 06:03:13;;;;;;;5.57;3.53;;;;;;;;;;7390705;19;20108;-72
2022/09/15 06:05:39;;;;;;;6.57;3.10;;;;;;;;;;7391860;19;20478;-72
2022/09/15 06:08:04;;;;;;;4.82;2.92;;;;;;;;;;7392123;19;19995;-72
2022/09/15 06:10:31;;;;;;;6.05;3.05;;;;;;;;;;7387857;19;20452;-72
2022/09/15 06:12:56;;;;;;;7.97;4.07;;;;;;;;;;7390297;19;20032;-73
2022/09/15 06:15:23;;;;;;;4.53;3.15;;;;;;;;;;7392064;19;20366;-72
2022/09/15 06:17:48;;;;;;;8.20;3.22;;;;;;;;;;7389781;19;20002;-71
2022/09/15 06:20:14;;;;;;;8.55;4.82;;;;;;;;;;7390379;19;19995;-71
2022/09/15 06:22:40;;;;;;;12.07;6.95;;;;;;;;;;7391119;19;20058;-72
2022/09/15 06:25:06;;;;;;;9.35;4.43;;;;;;;;;;7391605;19;20002;-72
2022/09/15 06:27:31;;;;;;;8.23;3.00;;;;;;;;;;7391066;19;20460;-72
2022/09/15 06:29:57;;;;;;;6.35;2.80;;;;;;;;;;7389689;19;19998;-72
2022/09/15 06:32:22;;;;;;;5.20;2.88;;;;;;;;;;7390236;19;20523;-72
2022/09/15 06:34:47;;;;;;;7.47;3.28;;;;;;;;;;7390778;19;20010;-72
2022/09/15 06:37:14;;;;;;;7.40;2.80;;;;;;;;;;7389492;19;19991;-72
2022/09/15 06:39:39;;;;;;;5.20;2.85;;;;;;;;;;7389213;19;20490;-72
2022/09/15 06:42:05;;;;;;;5.50;3.03;;;;;;;;;;7389630;19;20002;-72
2022/09/15 06:44:30;;;;;;;5.07;2.55;;;;;;;;;;7389895;19;20002;-72
2022/09/15 06:46:55;;;;;;;8.85;5.38;;;;;;;;;;7390063;19;20003;-72
2022/09/15 06:49:21;;;;;;;7.90;4.40;;;;;;;;;;7388981;19;20011;-71
2022/09/15 06:51:47;;;;;;;8.50;3.67;;;;;;;;;;7388570;19;20586;-72
2022/09/15 06:54:14;;;;;;;5.15;3.10;;;;;;;;;;7397171;19;20479;-71
2022/09/15 06:56:40;;;;;;;7.18;2.85;;;;;;;;;;7398726;19;20105;-72
2022/09/15 06:59:06;;;;;;;5.40;3.03;;;;;;;;;;7390611;19;19998;-72
2022/09/15 07:01:32;;;;;;;5.25;2.85;;;;;;;;;;7389066;19;20562;-71
2022/09/15 07:03:59;;;;;;;4.60;2.60;;;;;;;;;;7388512;19;20062;-71
2022/09/15 07:06:29;;;;;;;4.45;2.60;;;;;;;;;;7390181;19;20003;-71
2022/09/15 07:08:56;;;;;;;3.65;2.33;;;;;;;;;;7388765;19;19999;-72
2022/09/15 07:11:21;;;;;;;3.50;2.08;;;;;;;;;;7388838;19;20002;-71
2022/09/15 07:13:47;;;;;;;3.38;2.00;;;;;;;;;;7389063;19;19999;-71
2022/09/15 07:16:13;;;;;;;4.05;1.98;;;;;;;;;;7388509;19;20001;-70
2022/09/15 07:18:39;;;;;;;13.73;2.15;;;;;;;;;;7388930;19;20029;-70
2022/09/15 07:21:08;;;;;;;2.95;1.65;;;;;;;;;;7388308;19;20427;-71
2022/09/15 07:23:34;;;;;;;7.43;3.70;;;;;;;;;;7386541;19;19998;-72
2022/09/15 07:26:20;;;;;;;8.40;3.67;;;;;;;;;;7388849;19;20495;-71
2022/09/15 07:28:48;;;;;;;6.22;1.80;;;;;;;;;;7388612;19;20003;-72
2022/09/15 07:31:17;;;;;;;5.95;2.05;;;;;;;;;;7387874;19;20015;-72
2022/09/15 07:33:42;;;;;;;4.03;1.90;;;;;;;;;;7388531;19;20002;-71
2022/09/15 07:36:09;;;;;;;3.20;1.65;;;;;;;;;;7391903;19;20001;-70
2022/09/15 07:38:38;;;;;;;2.45;1.77;;;;;;;;;;7388451;19;20475;-69
2022/09/15 07:41:05;;;;;;;10.80;1.58;;;;;;;;;;7387686;19;20002;-72
2022/09/15 07:43:31;;;;;;;2.90;1.48;;;;;;;;;;7388401;19;19999;-71
2022/09/15 07:45:57;;;;;;;2.25;1.70;;;;;;;;;;7388209;19;20018;-71
2022/09/15 07:48:23;;;;;;;1.85;1.40;;;;;;;;;;7387160;19;20388;-71
2022/09/15 07:50:48;;;;;;;3.28;1.33;;;;;;;;;;7391788;19;19991;-70
2022/09/15 07:53:13;;;;;;;1.30;1.20;;;;;;;;;;7389063;19;20405;-72
2022/09/15 07:55:39;;;;;;;2.33;1.50;;;;;;;;;;7388541;19;20267;-70
2022/09/15 07:58:04;;;;;;;2.20;1.25;;;;;;;;;;7386647;19;20005;-72
2022/09/15 08:00:30;;;;;;;3.10;1.38;;;;;;;;;;7386685;19;20010;-70
2022/09/15 08:02:55;;;;;;;1.75;1.30;;;;;;;;;;7385408;19;20006;-71
2022/09/15 08:05:24;;;;;;;4.03;1.60;;;;;;;;;;7388057;19;19998;-70
2022/09/15 08:07:50;;;;;;;4.63;1.85;;;;;;;;;;7388206;19;20465;-71
2022/09/15 08:10:15;;;;;;;1.83;1.50;;;;;;;;;;7386959;19;19995;-71
2022/09/15 08:12:41;;;;;;;2.60;1.73;;;;;;;;;;7386478;19;20459;-71
2022/09/15 08:15:07;;;;;;;2.53;1.77;;;;;;;;;;7388195;19;20448;-71
2022/09/15 08:17:33;;;;;;;2.60;1.85;;;;;;;;;;7391879;19;20029;-69
2022/09/15 08:19:59;;;;;;;4.90;1.83;;;;;;;;;;7394511;19;20525;-72
2022/09/15 08:22:24;;;;;;;2.63;1.65;;;;;;;;;;7394994;19;19998;-71
2022/09/15 08:24:49;;;;;;;2.03;1.50;;;;;;;;;;7395178;19;19994;-70
2022/09/15 08:27:14;;;;;;;3.85;2.60;;;;;;;;;;7395025;19;19990;-71
2022/09/15 08:29:40;;;;;;;2.58;1.70;;;;;;;;;;7392054;19;20005;-72
2022/09/15 08:32:05;;;;;;;3.53;1.85;;;;;;;;;;7394251;19;20058;-70
2022/09/15 08:34:30;;;;;;;4.55;1.83;;;;;;;;;;7394874;19;20333;-71
2022/09/15 08:36:56;;;;;;;4.25;2.30;;;;;;;;;;7393070;19;20371;-72
2022/09/15 08:39:21;;;;;;;3.35;1.85;;;;;;;;;;7393429;19;20491;-71
2022/09/15 08:41:49;;;;;;;2.63;1.80;;;;;;;;;;7393888;19;20005;-71
2022/09/15 08:44:39;;;;;;;5.03;2.47;;;;;;;;;;7394735;19;20387;-71
2022/09/15 08:47:10;;;;;;;3.47;1.92;;;;;;;;;;7394460;19;20005;-72
2022/09/15 08:49:50;;;;;;;4.32;2.05;;;;;;;;;;7392576;19;20095;-71
2022/09/15 08:52:22;;;;;;;4.55;2.08;;;;;;;;;;7393445;19;20376;-71
2022/09/15 08:54:51;;;;;;;5.38;2.33;;;;;;;;;;7393761;19;20345;-72
2022/09/15 08:57:20;;;;;;;5.10;2.35;;;;;;;;;;7391765;19;19991;-70
2022/09/15 08:59:46;;;;;;;5.75;2.67;;;;;;;;;;7389910;19;20016;-70
2022/09/15 09:02:34;;;;;;;6.00;2.47;;;;;;;;;;7391540;19;19998;-72
2022/09/15 09:05:50;;;;;;;3.25;1.95;;;;;;;;;;7393782;19;20023;-72
2022/09/15 09:08:42;;;;;;;5.45;2.38;;;;;;;;;;7391205;19;20324;-71
2022/09/15 09:11:27;;;;;;;4.20;2.65;;;;;;;;;;7391982;19;19999;-71
2022/09/15 09:14:22;;;;;;;3.42;2.30;;;;;;;;;;7389938;19;20414;-72
2022/09/15 09:17:14;;;;;;;3.65;2.10;;;;;;;;;;7389156;19;20003;-71
2022/09/15 09:20:00;;;;;;;6.22;2.42;;;;;;;;;;7389906;19;20003;-71
2022/09/15 09:22:31;;;;;;;4.07;1.83;;;;;;;;;;7392685;19;20003;-71
2022/09/15 09:24:59;;;;;;;8.82;3.97;;;;;;;;;;7392871;19;20564;-71
2022/09/15 09:27:30;;;;;;;4.88;2.40;;;;;;;;;;7396504;19;20003;-70
2022/09/15 09:30:11;;;;;;;4.97;2.40;;;;;;;;;;7389428;19;20312;-71
2022/09/15 09:32:52;;;;;;;;;;;;;;;;;;7392281;19;20004;-71
2022/09/15 09:35:30;;;;;;;5.22;2.40;;;;;;;;;;7392297;19;19926;-71
2022/09/15 09:37:55;;;;;;;4.55;2.30;;;;;;;;;;7390187;19;20360;-71
2022/09/15 09:40:21;;;;;;;3.47;2.00;;;;;;;;;;7390694;19;19994;-70
2022/09/15 09:42:47;;;;;;;4.60;2.50;;;;;;;;;;7389746;19;20468;-71
2022/09/15 09:45:14;;;;;;;3.92;2.17;;;;;;;;;;7391962;19;19999;-69
2022/09/15 09:47:41;;;;;;;4.25;2.53;;;;;;;;;;7390381;19;20019;-71
2022/09/15 09:50:42;;;;;;;5.18;3.05;;;;;;;;;;7390507;19;20009;-71
2022/09/15 09:53:18;;;;;;;4.28;2.50;;;;;;;;;;7395736;19;19999;-72
2022/09/15 09:55:44;;;;;;;5.22;2.92;;;;;;;;;;7392482;19;20018;-70
2022/09/15 09:58:19;;;;;;;4.80;2.70;;;;;;;;;;7392283;19;20003;-71
2022/09/15 10:00:45;;;;;;;6.30;3.30;;;;;;;;;;7395274;19;20001;-70
2022/09/15 10:03:14;;;;;;;4.63;2.55;;;;;;;;;;7389928;19;20003;-70
2022/09/15 10:05:40;;;;;;;5.50;2.95;;;;;;;;;;7388712;19;20023;-69
2022/09/15 10:08:06;;;;;;;7.30;4.32;;;;;;;;;;7392481;19;20002;-70
2022/09/15 10:10:31;;;;;;;5.25;3.13;;;;;;;;;;7390330;19;19995;-71
2022/09/15 10:13:00;;;;;;;4.63;2.95;;;;;;;;;;7391228;19;20642;-70
2022/09/15 10:15:28;;;;;;;8.38;3.17;;;;;;;;;;7390592;19;20002;-70
2022/09/15 10:17:55;;;;;;;7.78;3.60;;;;;;;;;;7389860;19;20062;-69
2022/09/15 10:20:27;;;;;;;5.15;2.80;;;;;;;;;;7392244;19;20062;-69
2022/09/15 10:23:04;;;;;;;5.78;3.83;;;;;;;;;;7391255;19;19994;-70
2022/09/15 10:25:36;;;;;;;8.68;3.50;;;;;;;;;;7389446;19;20002;-70
2022/09/15 10:28:10;;;;;;;7.43;3.60;;;;;;;;;;7389610;19;20002;-69
2022/09/15 10:30:36;;;;;;;6.13;3.40;;;;;;;;;;7391423;19;19998;-70
2022/09/15 10:33:22;;;;;;;4.65;2.80;;;;;;;;;;7391775;19;20031;-70
2022/09/15 10:35:47;;;;;;;7.75;3.10;;;;;;;;;;7390264;19;19995;-70
2022/09/15 10:38:18;;;;;;;7.13;3.00;;;;;;;;;;7391051;19;20029;-70
2022/09/15 10:40:47;;;;;;;5.72;3.13;;;;;;;;;;7390419;19;20006;-70
2022/09/15 10:43:33;;;;;;;6.95;3.53;;;;;;;;;;7390543;19;20359;-69
2022/09/15 10:46:15;;;;;;;6.22;2.83;;;;;;;;;;7389567;19;20002;-71
2022/09/15 10:49:13;;;;;;;4.97;3.13;;;;;;;;;;7391173;19;20378;-70
2022/09/15 10:51:56;;;;;;;6.80;2.83;;;;;;;;;;7388837;19;20258;-70
2022/09/15 10:54:33;;;;;;;4.78;2.63;;;;;;;;;;7388903;19;20367;-71
2022/09/15 10:57:35;;;;;;;4.68;2.97;;;;;;;;;;7389863;19;20003;-71
2022/09/15 11:00:11;;;;;;;6.03;3.00;;;;;;;;;;7389877;19;19994;-71
2022/09/15 11:03:17;;;;;;;6.70;3.47;;;;;;;;;;7391335;19;19994;-70
2022/09/15 11:06:18;;;;;;;5.55;2.78;;;;;;;;;;7387825;19;19998;-71
2022/09/15 11:08:43;;;;;;;;;;;;;;;;;;7387844;19;19999;-71
2022/09/15 11:11:36;;;;;;;6.17;2.57;;;;;;;;;;7389204;19;19982;-72
2022/09/15 11:14:15;;;;;;;4.80;2.58;;;;;;;;;;7389906;19;20341;-70
2022/09/15 11:16:45;;;;;;;5.78;3.38;;;;;;;;;;7388468;19;19998;-69
2022/09/15 11:19:38;;;;;;;5.68;3.13;;;;;;;;;;7392584;19;19995;-70
2022/09/15 11:22:13;;;;;;;3.85;2.38;;;;;;;;;;7391329;19;19999;-71
2022/09/15 11:24:49;;;;;;;5.10;2.55;;;;;;;;;;7393735;19;20070;-71
2022/09/15 11:27:23;;;;;;;5.28;2.95;;;;;;;;;;7390859;19;20074;-71
2022/09/15 11:30:03;;;;;;;4.85;2.85;;;;;;;;;;7389141;19;20027;-70
2022/09/15 11:32:36;;;;;;;6.00;3.17;;;;;;;;;;7388953;19;20006;-71
2022/09/15 11:35:38;;;;;;;5.68;3.38;;;;;;;;;;7388587;19;20012;-70
2022/09/15 11:38:33;;;;;;;5.50;3.15;;;;;;;;;;7385208;19;20010;-70
2022/09/15 11:41:14;;;;;;;7.65;3.30;;;;;;;;;;7388363;19;20016;-71
2022/09/15 11:43:53;;;;;;;7.32;2.95;;;;;;;;;;7388963;19;20380;-70
2022/09/15 11:46:25;;;;;;;5.38;2.83;;;;;;;;;;7387470;19;19998;-71
2022/09/15 11:49:00;;;;;;;5.35;2.97;;;;;;;;;;7386618;19;19995;-71
2022/09/15 11:51:27;;;;;;;6.45;3.85;;;;;;;;;;7387273;19;19998;-69
2022/09/15 11:54:00;;;;;;;6.97;3.70;;;;;;;;;;7390090;19;20369;-70
2022/09/15 11:56:34;;;;;;;6.72;3.10;;;;;;;;;;7384485;19;20528;-70
2022/09/15 11:59:19;;;;;;;7.45;3.35;;;;;;;;;;7386615;19;20620;-71
2022/09/15 12:01:57;;;;;;;7.22;3.50;;;;;;;;;;7385928;19;20031;-71
2022/09/15 12:04:31;;;;;;;4.97;2.90;;;;;;;;;;7387965;19;20519;-71
2022/09/15 12:07:08;;;;;;;5.15;2.92;;;;;;;;;;7385637;19;19999;-70
2022/09/15 12:09:34;;;;;;;6.32;3.45;;;;;;;;;;7387800;19;20002;-70
2022/09/15 12:12:07;;;;;;;5.38;2.97;;;;;;;;;;7386741;19;20380;-70
2022/09/15 12:14:43;;;;;;;4.38;2.55;;;;;;;;;;7387405;19;19999;-70
2022/09/15 12:17:34;;;;;;;4.22;2.20;;;;;;;;;;7386256;19;19998;-69
2022/09/15 12:20:11;;;;;;;;;;;;;;;;;;7387936;19;20009;-69
2022/09/15 12:22:44;;;;;;;3.28;2.25;;;;;;;;;;7386653;19;19918;-71
2022/09/15 12:25:20;;;;;;;3.75;2.20;;;;;;;;;;7387499;19;20348;-69
2022/09/15 12:28:23;;;;;;;3.38;2.33;;;;;;;;;;7387521;19;20020;-69
2022/09/15 12:31:09;;;;;;;3.75;2.10;;;;;;;;;;7387086;19;19998;-68
2022/09/15 12:33:52;;;;;;;5.50;2.40;;;;;;;;;;7387458;19;20344;-69
2022/09/15 12:36:30;;;;;;;3.83;2.30;;;;;;;;;;7385634;19;20420;-70
2022/09/15 12:38:56;;;;;;;3.30;1.90;;;;;;;;;;7387457;19;20038;-70
2022/09/15 12:41:21;;;;;;;2.80;1.63;;;;;;;;;;7386438;19;20011;-68
2022/09/15 12:44:23;;;;;;;2.78;1.88;;;;;;;;;;7385652;19;19999;-70
2022/09/15 12:46:54;;;;;;;3.03;1.55;;;;;;;;;;7381488;19;20013;-70
2022/09/15 12:49:22;;;;;;;;;;;;;;;;;;7386321;19;20359;-69
2022/09/15 12:51:48;;;;;;;3.10;1.90;;;;;;;;;;7386345;19;19915;-70
2022/09/15 12:54:22;;;;;;;4.05;1.98;;;;;;;;;;7387558;19;20450;-71
2022/09/15 12:56:51;;;;;;;5.07;2.00;;;;;;;;;;7385366;19;20028;-70
2022/09/15 12:59:21;;;;;;;2.67;1.70;;;;;;;;;;7386557;19;20009;-70
2022/09/15 13:01:48;;;;;;;5.15;2.13;;;;;;;;;;7386485;19;20058;-70
2022/09/15 13:04:53;;;;;;;2.92;1.70;;;;;;;;;;7391812;19;20531;-70
2022/09/15 13:07:18;;;;;;;3.00;1.85;;;;;;;;;;7389602;19;19999;-70
2022/09/15 13:10:18;;;;;;;3.42;1.80;;;;;;;;;;7390054;19;20002;-70
2022/09/15 13:12:51;;;;;;;2.63;1.73;;;;;;;;;;7390314;19;20014;-70
2022/09/15 13:15:19;;;;;;;2.50;1.77;;;;;;;;;;7390767;19;20007;-71
2022/09/15 13:17:46;;;;;;;2.15;1.52;;;;;;;;;;7391062;19;20670;-70
2022/09/15 13:20:20;;;;;;;5.68;2.20;;;;;;;;;;7393302;19;20509;-69
2022/09/15 13:22:50;;;;;;;3.45;2.35;;;;;;;;;;7392750;19;20309;-70
2022/09/15 13:25:22;;;;;;;3.80;2.00;;;;;;;;;;7391828;19;20006;-70
2022/09/15 13:27:52;;;;;;;3.95;2.13;;;;;;;;;;7393513;19;20077;-71
2022/09/15 13:30:44;;;;;;;2.13;1.70;;;;;;;;;;7393115;19;20038;-71
2022/09/15 13:33:21;;;;;;;2.70;1.90;;;;;;;;;;7392274;19;20320;-69
2022/09/15 13:36:05;;;;;;;3.50;1.98;;;;;;;;;;7391237;19;20003;-70
2022/09/15 13:39:04;;;;;;;3.28;2.00;;;;;;;;;;7392929;19;20014;-70
2022/09/15 13:41:38;;;;;;;6.57;1.73;;;;;;;;;;7391801;19;20019;-70
2022/09/15 13:44:10;;;;;;;3.47;1.70;;;;;;;;;;7392262;19;20018;-71
2022/09/15 13:46:44;;;;;;;2.25;1.73;;;;;;;;;;7390109;19;20452;-70
2022/09/15 13:49:51;;;;;;;1.88;1.60;;;;;;;;;;7394580;19;20055;-70
2022/09/15 13:52:22;;;;;;;3.08;2.05;;;;;;;;;;7391037;19;20205;-69
2022/09/15 13:55:20;;;;;;;3.33;2.00;;;;;;;;;;7387482;19;20010;-71
2022/09/15 13:57:52;;;;;;;1.45;1.33;;;;;;;;;;7384777;19;20007;-69
2022/09/15 14:00:24;;;;;;;2.55;1.85;;;;;;;;;;7388686;19;20002;-71
2022/09/15 14:02:54;;;;;;;2.00;1.52;;;;;;;;;;7389414;19;20375;-71
2022/09/15 14:05:20;;;;;;;4.15;1.67;;;;;;;;;;7387102;19;20002;-76
2022/09/15 14:08:12;;;;;;;2.92;1.80;;;;;;;;;;7392679;19;20002;-75
2022/09/15 14:10:46;;;;;;;3.58;2.00;;;;;;;;;;7395129;19;20539;-75
2022/09/15 14:13:16;;;;;;;4.32;2.28;;;;;;;;;;7383312;19;20066;-75
2022/09/15 14:15:56;;;;;;;5.18;2.10;;;;;;;;;;7386702;19;20006;-75
2022/09/15 14:18:21;;;;;;;2.40;1.70;;;;;;;;;;7386422;19;20017;-75
2022/09/15 14:21:03;;;;;;;4.07;2.00;;;;;;;;;;7390001;19;20700;-76
2022/09/15 14:23:30;;;;;;;3.05;1.70;;;;;;;;;;7385230;19;20028;-75
2022/09/15 14:26:00;;;;;;;2.72;1.60;;;;;;;;;;7389346;19;20006;-74
2022/09/15 14:28:31;;;;;;;2.17;1.75;;;;;;;;;;7386204;19;20025;-75
2022/09/15 14:30:58;;;;;;;2.50;1.70;;;;;;;;;;7390384;19;20005;-75
2022/09/15 14:33:29;;;;;;;2.03;1.50;;;;;;;;;;7388644;19;20050;-75
2022/09/15 14:35:54;;;;;;;;;;;;;;;;;;7389561;19;20028;-77
2022/09/15 14:38:24;;;;;;;3.50;1.60;;;;;;;;;;7385868;19;19923;-75
2022/09/15 14:40:55;;;;;;;2.90;1.77;;;;;;;;;;7388955;19;20260;-75
2022/09/15 14:43:34;;;;;;;3.65;1.80;;;;;;;;;;7388728;19;20002;-76
2022/09/15 14:46:13;;;;;;;3.58;1.70;;;;;;;;;;7386398;19;20353;-75
2022/09/15 14:48:38;;;;;;;2.22;1.35;;;;;;;;;;7393347;19;20927;-73
2022/09/15 14:51:20;;;;;;;3.17;1.40;;;;;;;;;;7386724;19;20057;-76
2022/09/15 14:53:48;;;;;;;2.47;1.40;;;;;;;;;;7387624;19;20019;-76
2022/09/15 14:56:23;;;;;;;3.83;2.10;;;;;;;;;;7386624;19;20002;-68
2022/09/15 14:59:00;;;;;;;2.97;1.50;;;;;;;;;;7385721;19;20002;-70
2022/09/15 15:01:38;;;;;;;2.05;1.50;;;;;;;;;;7385118;19;20003;-71
2022/09/15 15:04:29;;;;;;;1.52;1.40;;;;;;;;;;7388084;19;20532;-70
2022/09/15 15:07:03;;;;;;;1.95;1.48;;;;;;;;;;7387987;19;20001;-70
2022/09/15 15:09:39;;;;;;;1.88;1.30;;;;;;;;;;7386312;19;20358;-70
2022/09/15 15:12:12;;;;;;;3.10;1.50;;;;;;;;;;7386584;19;20002;-70